Time;durP1;ratioP1;P1;durP2;ratioP2;P2;SDS_P1;SDS_P2;PMS_P1;PMS_P2;Temp;Humidity;BMP_temperature;BMP_pressure;BME280_temperature;BME280_humidity;BME280_pressure;Samples;Min_cycle;Max_cycle;Signal;HPM_P1;HPM_P2
2021/08/18 00:01:22;;;;;;;3.17;1.50;;;11.90;99.90;;;;;;21224253;27;20079;-55
2021/08/18 00:11:24;;;;;;;3.55;1.98;;;11.80;99.90;;;;;;21214259;27;20061;-55
2021/08/18 00:21:26;;;;;;;4.70;1.63;;;11.60;99.90;;;;;;21230772;27;20100;-55
2021/08/18 00:31:27;;;;;;;3.95;1.90;;;11.60;99.90;;;;;;21233366;28;20396;-55
2021/08/18 00:41:29;;;;;;;3.33;1.35;;;11.50;99.90;;;;;;21231524;28;20087;-54
2021/08/18 00:51:30;;;;;;;8.25;3.05;;;11.50;99.90;;;;;;21233049;27;20468;-57
2021/08/18 01:01:32;;;;;;;2.90;1.83;;;11.40;99.90;;;;;;21222924;27;20095;-56
2021/08/18 01:11:36;;;;;;;8.32;2.70;;;11.60;99.90;;;;;;21245572;27;20068;-56
2021/08/18 01:21:41;;;;;;;6.18;2.42;;;11.40;99.90;;;;;;21198339;27;20039;-53
2021/08/18 01:31:43;;;;;;;3.05;1.90;;;11.40;99.90;;;;;;21201964;27;20039;-57
2021/08/18 01:41:45;;;;;;;12.63;2.05;;;11.40;99.90;;;;;;21209590;27;20035;-55
2021/08/18 01:51:47;;;;;;;4.80;2.10;;;11.30;99.90;;;;;;21211281;27;20080;-55
2021/08/18 02:01:49;;;;;;;6.07;2.40;;;11.20;99.90;;;;;;21199214;27;20058;-54
2021/08/18 02:11:50;;;;;;;6.50;2.30;;;11.00;99.90;;;;;;21206533;27;20137;-56
2021/08/18 02:21:52;;;;;;;5.55;2.90;;;11.00;99.90;;;;;;21245449;27;20108;-55
2021/08/18 02:31:54;;;;;;;3.60;2.25;;;11.00;99.90;;;;;;21249712;27;20027;-56
2021/08/18 02:41:56;;;;;;;3.38;1.85;;;11.00;99.90;;;;;;21247891;27;20429;-56
2021/08/18 02:51:58;;;;;;;6.13;2.92;;;11.00;99.90;;;;;;21246708;27;20027;-56
2021/08/18 03:02:00;;;;;;;3.92;1.83;;;11.10;99.90;;;;;;21237344;27;20034;-55
2021/08/18 03:12:01;;;;;;;3.20;2.00;;;11.10;99.90;;;;;;21245190;27;20046;-57
2021/08/18 03:22:04;;;;;;;3.88;2.20;;;11.20;99.90;;;;;;21188620;27;20549;-53
2021/08/18 03:32:06;;;;;;;6.25;3.30;;;11.20;99.90;;;;;;21187498;27;20035;-56
2021/08/18 03:42:08;;;;;;;4.10;2.58;;;11.10;99.90;;;;;;21202154;27;20039;-53
2021/08/18 03:52:10;;;;;;;5.05;2.42;;;11.20;99.90;;;;;;21212124;27;20485;-55
2021/08/18 04:02:11;;;;;;;4.20;2.45;;;11.30;99.90;;;;;;21183099;27;20031;-56
2021/08/18 04:12:13;;;;;;;4.07;2.38;;;11.20;99.90;;;;;;21185216;27;20031;-54
2021/08/18 04:22:14;;;;;;;50.10;25.27;;;11.20;99.90;;;;;;21238598;27;20055;-54
2021/08/18 04:32:16;;;;;;;75.78;43.35;;;11.30;99.90;;;;;;21236364;27;20534;-55
2021/08/18 04:42:18;;;;;;;44.65;25.98;;;11.50;99.90;;;;;;21218872;28;20079;-54
2021/08/18 04:52:19;;;;;;;20.10;12.05;;;11.50;99.90;;;;;;21238675;28;20031;-53
2021/08/18 05:02:21;;;;;;;20.85;12.05;;;11.70;99.90;;;;;;21230564;28;20031;-53
2021/08/18 05:12:23;;;;;;;15.10;8.65;;;11.90;99.90;;;;;;21237442;28;20525;-54
2021/08/18 05:22:25;;;;;;;9.63;4.80;;;12.20;99.90;;;;;;21238525;28;20096;-57
2021/08/18 05:32:27;;;;;;;7.70;3.00;;;12.60;99.90;;;;;;21238540;28;20031;-57
2021/08/18 05:42:28;;;;;;;3.50;1.83;;;12.90;99.90;;;;;;21245426;27;20031;-54
2021/08/18 05:52:30;;;;;;;4.72;1.60;;;13.50;99.90;;;;;;21252105;27;20080;-54
2021/08/18 06:02:32;;;;;;;3.17;1.60;;;13.80;99.90;;;;;;21243717;27;20035;-56
2021/08/18 06:12:34;;;;;;;2.20;1.40;;;14.50;99.90;;;;;;21249473;27;20031;-53
2021/08/18 06:22:35;;;;;;;3.72;1.60;;;15.10;99.90;;;;;;21205523;27;20039;-55
2021/08/18 06:32:38;;;;;;;1.80;0.93;;;15.90;99.90;;;;;;21189192;27;20031;-56
2021/08/18 06:42:46;;;;;;;2.70;1.08;;;16.30;99.90;;;;;;21155920;27;20049;-57
2021/08/18 06:52:48;;;;;;;5.13;1.20;;;18.10;99.90;;;;;;21212081;27;20038;-56
2021/08/18 07:02:51;;;;;;;2.35;1.48;;;19.10;99.90;;;;;;21183537;27;20027;-58
2021/08/18 07:12:53;;;;;;;3.35;1.10;;;20.30;99.90;;;;;;21204688;27;20434;-58
2021/08/18 07:22:55;;;;;;;2.53;0.90;;;21.10;99.90;;;;;;21195396;27;20536;-54
2021/08/18 07:32:57;;;;;;;2.35;0.90;;;21.70;99.90;;;;;;21204850;27;20023;-53
2021/08/18 07:42:59;;;;;;;1.25;0.80;;;22.10;99.90;;;;;;21197989;27;20040;-56
2021/08/18 07:53:01;;;;;;;1.70;1.00;;;22.90;98.30;;;;;;21184191;27;20035;-58
2021/08/18 08:03:03;;;;;;;1.30;0.90;;;21.80;98.90;;;;;;21196118;27;20031;-56
2021/08/18 08:13:07;;;;;;;2.45;1.13;;;21.30;99.50;;;;;;21200956;27;20043;-57
2021/08/18 08:23:09;;;;;;;1.10;0.80;;;21.00;99.80;;;;;;21191008;27;20108;-55
2021/08/18 08:33:11;;;;;;;2.97;1.27;;;21.20;99.90;;;;;;21196606;27;20027;-52
2021/08/18 08:43:14;;;;;;;2.65;1.27;;;22.90;97.90;;;;;;21194666;28;20027;-55
2021/08/18 08:53:16;;;;;;;2.50;1.13;;;21.80;98.50;;;;;;21194276;28;20311;-58
2021/08/18 09:03:23;;;;;;;2.90;1.58;;;20.20;99.90;;;;;;21181357;28;20076;-54
2021/08/18 09:13:36;;;;;;;3.78;1.50;;;19.40;99.90;;;;;;21197688;27;20368;-58
2021/08/18 09:23:38;;;;;;;2.05;1.38;;;18.80;99.90;;;;;;21208820;27;20042;-58
2021/08/18 09:33:42;;;;;;;3.47;1.88;;;18.80;99.90;;;;;;21200124;27;20545;-58
2021/08/18 09:43:47;;;;;;;2.67;1.50;;;19.30;99.90;;;;;;21206933;27;20031;-55
2021/08/18 09:53:50;;;;;;;2.85;1.65;;;19.70;99.90;;;;;;21196880;27;20039;-55
2021/08/18 10:03:52;;;;;;;3.50;1.30;;;19.50;99.90;;;;;;21189519;27;20027;-57
2021/08/18 10:13:55;;;;;;;3.58;1.77;;;19.20;99.90;;;;;;21210518;27;20039;-57
2021/08/18 10:23:58;;;;;;;2.00;1.30;;;19.20;99.90;;;;;;21246487;27;20052;-58
2021/08/18 10:34:01;;;;;;;4.28;0.98;;;19.40;99.90;;;;;;21245346;27;20103;-54
2021/08/18 10:44:02;;;;;;;1.42;0.95;;;19.10;99.90;;;;;;21245715;27;20329;-59
2021/08/18 10:54:28;;;;;;;1.33;0.95;;;19.40;99.90;;;;;;21244861;27;20092;-58
2021/08/18 11:04:47;;;;;;;1.90;1.08;;;19.90;99.90;;;;;;21236054;27;20092;-55
2021/08/18 11:14:49;;;;;;;1.60;1.17;;;21.20;99.90;;;;;;21228157;27;20446;-55
2021/08/18 11:24:51;;;;;;;1.42;0.77;;;22.20;99.90;;;;;;21223841;27;20031;-58
2021/08/18 11:34:53;;;;;;;1.35;0.90;;;23.60;94.70;;;;;;21220890;27;20057;-59
2021/08/18 11:45:17;;;;;;;1.15;0.73;;;22.60;95.40;;;;;;21240401;27;20544;-58
2021/08/18 11:55:29;;;;;;;3.25;0.90;;;21.80;97.00;;;;;;21239979;27;20031;-55
2021/08/18 12:05:35;;;;;;;2.92;1.20;;;21.70;95.90;;;;;;21224883;27;20029;-58
2021/08/18 12:15:46;;;;;;;7.78;1.20;;;22.00;96.60;;;;;;21227658;27;20043;-51
2021/08/18 12:25:48;;;;;;;1.20;0.80;;;23.40;96.50;;;;;;21174995;27;20039;-57
2021/08/18 12:36:13;;;;;;;1.10;0.88;;;24.30;95.60;;;;;;21206089;28;20337;-58
2021/08/18 12:46:24;;;;;;;2.20;1.08;;;24.60;93.10;;;;;;21196668;27;20401;-54
2021/08/18 12:56:25;;;;;;;2.78;0.85;;;24.50;93.00;;;;;;21231401;27;20500;-59
2021/08/18 13:06:27;;;;;;;1.33;0.80;;;24.10;90.90;;;;;;21216712;27;20361;-57
2021/08/18 13:16:29;;;;;;;2.00;1.10;;;22.60;94.90;;;;;;21208353;27;20040;-56
2021/08/18 13:26:31;;;;;;;1.52;1.00;;;23.00;93.50;;;;;;21197217;27;20053;-59
2021/08/18 13:36:33;;;;;;;3.40;1.10;;;22.60;94.60;;;;;;21201910;27;20080;-59
2021/08/18 13:46:36;;;;;;;1.23;1.00;;;23.10;92.90;;;;;;21198449;27;20096;-58
2021/08/18 13:56:39;;;;;;;1.75;1.00;;;24.00;94.00;;;;;;21195741;27;20476;-56
2021/08/18 14:06:41;;;;;;;2.25;1.10;;;24.80;92.80;;;;;;21185612;27;20035;-55
2021/08/18 14:16:45;;;;;;;1.27;0.90;;;24.90;90.90;;;;;;21205813;27;20054;-59
2021/08/18 14:26:46;;;;;;;5.40;1.15;;;24.30;90.40;;;;;;21214685;27;20027;-58
2021/08/18 14:36:48;;;;;;;1.55;1.13;;;23.90;92.20;;;;;;21217651;27;20046;-57
2021/08/18 14:46:49;;;;;;;2.28;1.17;;;24.30;90.90;;;;;;21208153;27;20370;-57
2021/08/18 14:56:51;;;;;;;1.92;1.00;;;24.30;90.40;;;;;;21222354;27;20035;-58
2021/08/18 15:06:54;;;;;;;4.07;1.33;;;24.20;90.80;;;;;;21214316;27;20023;-54
2021/08/18 15:16:56;;;;;;;2.10;0.95;;;23.00;88.90;;;;;;21187348;27;20061;-58
2021/08/18 15:26:58;;;;;;;2.17;0.80;;;20.40;93.90;;;;;;21179716;27;20088;-57
2021/08/18 15:37:00;;;;;;;1.85;0.95;;;19.70;94.80;;;;;;21177603;27;20035;-57
2021/08/18 15:47:02;;;;;;;1.40;0.75;;;19.60;95.30;;;;;;21156542;27;20080;-60
2021/08/18 15:57:11;;;;;;;1.40;0.85;;;20.20;95.20;;;;;;21186379;27;20035;-57
2021/08/18 16:07:12;;;;;;;1.02;0.70;;;21.40;93.80;;;;;;21186431;27;20546;-58
2021/08/18 16:17:14;;;;;;;1.92;1.10;;;22.20;92.00;;;;;;21199339;27;20047;-55
2021/08/18 16:27:17;;;;;;;2.38;1.40;;;20.80;92.20;;;;;;21174868;27;20097;-55
2021/08/18 16:37:19;;;;;;;2.83;1.52;;;18.90;94.60;;;;;;21201268;28;20030;-56
2021/08/18 16:47:20;;;;;;;2.78;1.63;;;17.60;97.30;;;;;;21172248;28;20052;-54
2021/08/18 16:57:22;;;;;;;3.72;1.88;;;16.60;99.90;;;;;;21167331;28;20439;-61
2021/08/18 17:07:24;;;;;;;3.53;2.15;;;15.80;99.90;;;;;;21177043;28;20375;-58
2021/08/18 17:17:26;;;;;;;5.70;1.90;;;15.50;99.90;;;;;;21189627;28;20047;-58
2021/08/18 17:27:28;;;;;;;2.70;1.80;;;15.10;99.90;;;;;;21183523;28;20042;-57
2021/08/18 17:37:30;;;;;;;2.05;1.70;;;14.80;99.90;;;;;;21187494;27;20027;-53
2021/08/18 17:47:34;;;;;;;4.95;2.08;;;14.70;99.90;;;;;;21201331;27;20059;-53
2021/08/18 17:57:37;;;;;;;3.35;1.75;;;14.40;99.90;;;;;;21194006;27;20031;-53
2021/08/18 18:07:40;;;;;;;2.92;1.48;;;14.10;99.90;;;;;;21199571;27;20035;-55
2021/08/18 18:17:42;;;;;;;3.50;1.90;;;13.70;99.90;;;;;;21210326;27;20084;-56
2021/08/18 18:27:45;;;;;;;4.88;2.28;;;13.40;99.90;;;;;;21227439;27;20337;-56
2021/08/18 18:37:48;;;;;;;3.85;1.90;;;13.10;99.90;;;;;;21211052;27;20088;-54
2021/08/18 18:47:50;;;;;;;2.65;1.80;;;12.90;99.90;;;;;;21229603;27;20367;-55
2021/08/18 18:57:52;;;;;;;2.63;2.05;;;12.60;99.90;;;;;;21221704;27;20053;-54
2021/08/18 19:07:55;;;;;;;6.72;3.53;;;12.40;99.90;;;;;;21233806;27;20027;-51
2021/08/18 19:17:58;;;;;;;4.60;2.65;;;12.20;99.90;;;;;;21220584;27;20107;-56
2021/08/18 19:28:00;;;;;;;5.53;3.00;;;12.20;99.90;;;;;;21196004;27;20040;-57
2021/08/18 19:38:02;;;;;;;8.40;4.60;;;12.10;99.90;;;;;;21180850;27;20031;-56
2021/08/18 19:48:04;;;;;;;4.20;2.78;;;11.90;99.90;;;;;;21186286;27;20088;-56
2021/08/18 19:58:07;;;;;;;7.75;3.60;;;11.80;99.90;;;;;;21185073;27;20062;-57
2021/08/18 20:08:09;;;;;;;4.65;3.20;;;11.60;99.90;;;;;;21175946;27;20373;-56
2021/08/18 20:18:11;;;;;;;8.65;3.30;;;11.50;99.90;;;;;;21195541;27;20051;-55
2021/08/18 20:28:13;;;;;;;5.60;3.35;;;11.40;99.90;;;;;;21189677;27;20485;-55
2021/08/18 20:38:17;;;;;;;4.97;3.05;;;11.30;99.90;;;;;;21180634;28;20561;-62
2021/08/18 20:48:19;;;;;;;5.55;3.28;;;11.30;99.90;;;;;;21155169;28;20043;-62
2021/08/18 20:58:21;;;;;;;6.88;4.20;;;11.30;99.90;;;;;;21154948;28;20028;-63
2021/08/18 21:08:23;;;;;;;9.23;5.20;;;11.20;99.90;;;;;;21156768;28;20039;-65
2021/08/18 21:18:25;;;;;;;5.35;3.67;;;11.10;99.90;;;;;;21119730;28;20109;-59
2021/08/18 21:28:27;;;;;;;4.65;3.42;;;11.10;99.90;;;;;;21068701;28;20050;-57
2021/08/18 21:38:31;;;;;;;7.47;3.83;;;10.90;99.90;;;;;;21084967;28;20031;-59
2021/08/18 21:48:33;;;;;;;13.43;4.50;;;11.00;99.90;;;;;;21084014;28;20474;-65
2021/08/18 21:58:35;;;;;;;7.93;4.43;;;11.00;99.90;;;;;;21083186;28;20104;-64
2021/08/18 22:08:37;;;;;;;10.90;3.95;;;11.10;99.90;;;;;;21082920;28;20028;-64
2021/08/18 22:18:40;;;;;;;6.45;3.90;;;11.00;99.90;;;;;;21052240;28;20062;-64
2021/08/18 22:28:42;;;;;;;6.88;5.00;;;11.10;99.90;;;;;;21167696;28;20096;-59
2021/08/18 22:38:44;;;;;;;6.65;3.90;;;11.10;99.90;;;;;;21166287;28;20053;-60
2021/08/18 22:48:46;;;;;;;6.47;4.00;;;11.00;99.90;;;;;;21164853;28;20039;-59
2021/08/18 22:58:49;;;;;;;7.63;5.38;;;10.80;99.90;;;;;;21163410;28;20081;-60
2021/08/18 23:08:52;;;;;;;10.02;6.50;;;10.70;99.90;;;;;;21162300;28;20087;-61
2021/08/18 23:18:53;;;;;;;7.47;4.40;;;10.70;99.90;;;;;;21161355;28;20051;-58
2021/08/18 23:28:55;;;;;;;6.88;3.97;;;10.90;99.90;;;;;;21160868;28;20032;-57
2021/08/18 23:38:57;;;;;;;9.93;3.65;;;11.30;99.90;;;;;;21158932;28;20036;-58
2021/08/18 23:48:59;;;;;;;5.30;3.10;;;11.50;99.90;;;;;;21152384;28;20038;-58
2021/08/18 23:59:01;;;;;;;3.63;2.28;;;11.40;99.90;;;;;;21158464;28;20024;-60
